This is the latest recevied weather packets stored in our database for station/object DK6GC-10. If no packets are shown the sender has not sent any weather packets the latest 10 day(s).
| Time | Temp. | Humidity | Pressure | Rain* | Wind** | Luminosity | Snow |
|---|---|---|---|---|---|---|---|
| 1788420664 | 19.44° C | 67% | 1024.7 hPa | - | - | - | - |
| 1788419764 | 18.89° C | 72% | 1024.6 hPa | - | - | - | - |
| 1788418864 | 17.78° C | 79% | 1024.5 hPa | - | - | - | - |
| 1788417964 | 16.67° C | 81% | 1024.3 hPa | - | - | - | - |
| 1788417063 | 15.56° C | 83% | 1024.2 hPa | - | - | - | - |
| 1788416163 | 16.11° C | 81% | 1024 hPa | - | - | - | - |
| 1788415221 | 18.89° C | 70% | 1024.1 hPa | - | - | - | - |
| 1788414321 | 13.89° C | 92% | 1024.2 hPa | - | - | - | - |
| 1788413421 | 12.78° C | 95% | 1024.1 hPa | - | - | - | - |
| 1788412521 | 12.78° C | 95% | 1024 hPa | - | - | - | - |
| 1788411620 | 12.22° C | 95% | 1024 hPa | - | - | - | - |
| 1788410720 | 12.22° C | 96% | 1023.9 hPa | - | - | - | - |
| 1788409819 | 12.78° C | 94% | 1023.6 hPa | - | - | - | - |
| 1788408919 | 12.78° C | 93% | 1023.6 hPa | - | - | - | - |
| 1788408019 | 12.78° C | 96% | 1023.3 hPa | - | - | - | - |
| 1788407119 | 12.78° C | 94% | 1023.6 hPa | - | - | - | - |
| 1788406219 | 12.78° C | 95% | 1023.8 hPa | - | - | - | - |
| 1788405318 | 12.22° C | 94% | 1023.8 hPa | - | - | - | - |
| 1788404418 | 12.78° C | 95% | 1023.9 hPa | - | - | - | - |
| 1788403518 | 12.78° C | 95% | 1023.8 hPa | - | - | - | - |
| 1788402618 | 12.78° C | 94% | 1023.9 hPa | - | - | - | - |
| 1788401718 | 12.78° C | 92% | 1023.9 hPa | - | - | - | - |
| 1788400818 | 12.78° C | 93% | 1023.9 hPa | - | - | - | - |
| 1788399917 | 13.33° C | 93% | 1023.9 hPa | - | - | - | - |
| 1788399017 | 13.33° C | 91% | 1023.9 hPa | - | - | - | - |
* Rain since midnight (hover to see other rain measurements)
** Current wind speed in m/s (hover to see current wind gust speed)